Time;durP1;ratioP1;P1;durP2;ratioP2;P2;SDS_P1;SDS_P2;PMS_P1;PMS_P2;Temp;Humidity;BMP_temperature;BMP_pressure;BME280_temperature;BME280_humidity;BME280_pressure;Samples;Min_cycle;Max_cycle;Signal;HPM_P1;HPM_P2
2022/12/08 00:01:43;;;;;;;82.33;37.80;;;;;;;4.78;94.92;94662.44;5051594;28;20178;-75
2022/12/08 00:04:09;;;;;;;88.90;39.00;;;;;;;4.68;94.28;94655.88;5051521;28;20195;-75
2022/12/08 00:09:37;;;;;;;81.43;37.03;;;;;;;4.63;94.46;94674.66;5014608;28;20290;-75
2022/12/08 00:12:11;;;;;;;83.07;38.80;;;;;;;4.63;94.06;94659.03;5051523;28;20658;-75
2022/12/08 00:14:44;;;;;;;82.40;36.07;;;;;;;4.65;93.52;94662.25;5051563;28;20183;-75
2022/12/08 00:17:11;;;;;;;87.30;38.23;;;;;;;4.67;93.69;94683.72;5051412;28;20202;-75
2022/12/08 00:19:38;;;;;;;105.60;42.53;;;;;;;4.70;93.60;94685.97;5051280;28;20925;-75
2022/12/08 00:22:07;;;;;;;104.53;43.17;;;;;;;4.69;94.51;94680.94;5051124;28;20182;-75
2022/12/08 00:24:37;;;;;;;102.93;38.73;;;;;;;4.62;94.65;94678.25;5041278;28;20643;-75
2022/12/08 00:27:02;;;;;;;90.80;38.53;;;;;;;4.67;94.53;94683.72;5031622;28;20179;-75
2022/12/08 00:29:28;;;;;;;95.50;39.90;;;;;;;4.66;94.16;94686.53;5031547;28;20180;-75
2022/12/08 00:31:53;;;;;;;78.37;39.10;;;;;;;4.63;93.92;94686.88;5030048;28;20167;-75
2022/12/08 00:34:19;;;;;;;84.73;37.83;;;;;;;4.55;93.98;94682.56;5038816;28;20609;-75
2022/12/08 00:36:45;;;;;;;80.00;38.07;;;;;;;4.57;94.08;94692.81;5031001;28;20179;-75
2022/12/08 00:39:12;;;;;;;82.33;39.97;;;;;;;4.49;93.52;94688.50;5031094;28;20234;-75
2022/12/08 00:44:22;;;;;;;81.67;37.50;;;;;;;4.26;93.57;94666.88;5036896;28;20181;-75
2022/12/08 00:46:47;;;;;;;77.63;36.67;;;;;;;4.39;94.07;94693.97;5050638;28;20198;-75
2022/12/08 00:49:14;;;;;;;75.37;34.97;;;;;;;4.39;93.78;94683.53;5050635;28;20562;-75
2022/12/08 00:51:40;;;;;;;76.87;34.27;;;;;;;4.52;93.94;94698.53;5050486;28;20697;-75
2022/12/08 00:54:06;;;;;;;64.17;32.23;;;;;;;4.47;94.08;94695.69;5050664;28;20189;-75
2022/12/08 00:56:32;;;;;;;69.47;33.80;;;;;;;4.49;94.70;94704.13;5050714;28;20261;-75
2022/12/08 00:58:58;;;;;;;76.87;33.03;;;;;;;4.41;94.41;94681.53;5041367;28;20172;-75
2022/12/08 01:01:24;;;;;;;74.60;34.57;;;;;;;4.40;94.45;94682.56;5030625;28;20654;-75
2022/12/08 01:03:49;;;;;;;76.03;35.70;;;;;;;4.33;94.30;94663.38;5046503;28;20210;-75
2022/12/08 01:06:15;;;;;;;78.00;38.57;;;;;;;4.38;94.42;94679.31;5050564;28;20244;-75
2022/12/08 01:08:41;;;;;;;99.00;47.60;;;;;;;4.33;94.67;94694.63;5049397;28;20432;-75
2022/12/08 01:11:11;;;;;;;92.20;41.57;;;;;;;4.40;94.64;94689.56;5050486;28;20178;-75
2022/12/08 01:13:38;;;;;;;97.20;40.93;;;;;;;4.47;94.51;94687.84;5037389;28;20639;-75
2022/12/08 01:16:04;;;;;;;79.33;36.93;;;;;;;4.51;94.46;94691.72;5030347;28;20176;-75
2022/12/08 01:18:30;;;;;;;86.47;38.80;;;;;;;4.50;93.87;94690.09;5030427;28;20187;-75
2022/12/08 01:21:05;;;;;;;90.57;38.93;;;;;;;4.51;94.00;94684.69;5030558;28;20183;-76
2022/12/08 01:23:30;;;;;;;158.47;57.90;;;;;;;4.52;94.11;94682.91;5030331;28;20571;-75
2022/12/08 01:26:04;;;;;;;137.77;57.03;;;;;;;4.33;94.30;94654.75;5029793;28;20449;-75
2022/12/08 01:28:31;;;;;;;91.13;45.53;;;;;;;4.45;94.70;94677.59;5030473;28;20620;-75
2022/12/08 01:30:57;;;;;;;92.23;41.43;;;;;;;4.47;95.01;94675.63;5030473;28;20186;-75
2022/12/08 01:33:22;;;;;;;80.23;41.37;;;;;;;4.47;94.73;94672.22;5030265;28;20199;-75
2022/12/08 01:35:48;;;;;;;84.77;40.50;;;;;;;4.46;94.67;94678.41;5042192;28;20247;-75
2022/12/08 01:38:13;;;;;;;71.43;37.33;;;;;;;4.31;95.00;94661.97;5050142;28;20356;-75
2022/12/08 01:40:39;;;;;;;67.23;35.50;;;;;;;4.40;95.25;94669.53;5048836;28;20171;-75
2022/12/08 01:43:04;;;;;;;72.80;37.17;;;;;;;4.19;95.21;94635.53;5050196;28;20648;-75
2022/12/08 01:45:31;;;;;;;66.00;34.27;;;;;;;4.37;94.93;94664.66;5050243;28;20214;-75
2022/12/08 01:48:02;;;;;;;65.30;33.40;;;;;;;4.35;95.00;94660.59;5053102;28;20181;-75
2022/12/08 01:50:29;;;;;;;63.47;35.50;;;;;;;4.37;94.65;94666.44;5054109;28;20175;-75
2022/12/08 01:53:08;;;;;;;37.47;19.90;;;;;;;4.40;94.41;94663.50;5054175;28;20179;-75
2022/12/08 01:56:02;;;;;;;55.30;26.27;;;;;;;4.38;95.25;94650.66;5046754;28;20179;-75
2022/12/08 01:58:36;;;;;;;60.53;28.47;;;;;;;4.29;95.25;94636.06;5033952;28;20620;-75
2022/12/08 02:01:02;;;;;;;60.63;28.97;;;;;;;4.43;94.77;94648.31;5034205;28;20191;-75
2022/12/08 02:03:38;;;;;;;45.40;25.17;;;;;;;4.43;94.32;94653.50;5034008;28;20555;-75
2022/12/08 02:06:03;;;;;;;53.97;29.23;;;;;;;4.43;94.30;94657.91;5052513;28;20447;-75
2022/12/08 02:08:30;;;;;;;57.80;28.93;;;;;;;4.45;94.74;94650.72;5053799;28;20428;-75
2022/12/08 02:10:55;;;;;;;57.33;30.77;;;;;;;4.38;94.58;94644.63;5053707;28;20236;-75
2022/12/08 02:13:22;;;;;;;60.10;29.60;;;;;;;4.42;93.63;94654.50;5053576;28;20175;-75
2022/12/08 02:16:04;;;;;;;62.77;26.70;;;;;;;4.33;93.30;94652.16;5053860;28;20171;-75
2022/12/08 02:19:10;;;;;;;59.60;30.53;;;;;;;4.31;93.24;94648.94;5026604;28;20190;-75
2022/12/08 02:21:54;;;;;;;53.97;28.03;;;;;;;4.25;93.50;94649.63;5026858;28;20187;-75
2022/12/08 02:24:37;;;;;;;44.47;24.77;;;;;;;4.24;93.29;94648.03;5032566;28;20982;-76
2022/12/08 02:27:31;;;;;;;39.87;21.57;;;;;;;4.17;93.53;94650.50;5032486;28;20207;-75
2022/12/08 02:30:27;;;;;;;39.87;22.13;;;;;;;4.17;92.66;94655.72;5033523;28;20187;-75
2022/12/08 02:33:14;;;;;;;42.57;21.97;;;;;;;4.16;92.76;94648.88;5033511;28;20253;-75
2022/12/08 02:36:14;;;;;;;40.70;20.93;;;;;;;4.09;93.01;94651.38;5033530;28;20180;-75
2022/12/08 02:38:48;;;;;;;44.93;21.30;;;;;;;4.05;93.11;94647.53;5024927;28;20195;-75
2022/12/08 02:41:22;;;;;;;37.00;19.50;;;;;;;3.87;92.82;94626.19;5033192;28;20178;-75
2022/12/08 02:43:54;;;;;;;38.30;20.10;;;;;;;3.88;92.43;94627.81;5033444;28;20206;-76
2022/12/08 02:46:29;;;;;;;37.27;20.07;;;;;;;3.80;92.39;94631.28;5033821;28;20223;-76
2022/12/08 02:48:56;;;;;;;46.47;23.37;;;;;;;3.81;92.92;94647.72;5033386;28;20654;-76
2022/12/08 02:51:22;;;;;;;43.40;21.63;;;;;;;3.80;93.71;94644.28;5033513;28;20221;-76
2022/12/08 02:53:47;;;;;;;46.80;20.90;;;;;;;3.82;93.69;94638.91;5050559;28;20254;-76
2022/12/08 02:56:45;;;;;;;43.23;21.87;;;;;;;3.86;93.28;94640.19;5034031;28;20179;-75
2022/12/08 02:59:43;;;;;;;35.17;19.03;;;;;;;3.88;93.60;94632.22;5026167;28;20199;-76
2022/12/08 03:02:15;;;;;;;46.40;19.87;;;;;;;3.90;93.73;94644.06;5033362;28;20184;-76
2022/12/08 03:04:59;;;;;;;40.27;20.40;;;;;;;3.87;93.87;94641.81;5033492;28;20188;-76
2022/12/08 03:07:38;;;;;;;42.07;20.93;;;;;;;3.84;93.71;94633.53;5032120;28;20572;-76
2022/12/08 03:10:21;;;;;;;42.27;19.93;;;;;;;3.75;93.43;94628.41;5036075;28;20548;-76
2022/12/08 03:12:59;;;;;;;44.78;24.02;;;;;;;3.82;93.55;94643.31;5051827;28;20451;-76
2022/12/08 03:15:25;;;;;;;43.17;21.80;;;;;;;3.84;93.14;94642.16;5052983;28;20171;-76
2022/12/08 03:17:55;;;;;;;42.40;20.77;;;;;;;3.66;92.97;94615.63;5052826;28;20198;-76
2022/12/08 03:20:24;;;;;;;36.13;19.90;;;;;;;3.78;92.93;94635.88;5042515;28;20183;-76
2022/12/08 03:22:53;;;;;;;34.50;18.93;;;;;;;3.72;93.16;94627.94;5036820;28;20229;-76
2022/12/08 03:25:21;;;;;;;34.53;19.23;;;;;;;3.71;93.49;94628.94;5052470;28;20238;-76
2022/12/08 03:27:48;;;;;;;39.50;19.70;;;;;;;3.80;93.79;94635.69;5043694;28;20655;-76
2022/12/08 03:30:13;;;;;;;38.33;19.57;;;;;;;3.78;93.77;94635.88;5032772;28;20179;-76
2022/12/08 03:32:46;;;;;;;37.10;20.03;;;;;;;3.75;93.54;94638.00;5037470;28;20545;-76
2022/12/08 03:35:30;;;;;;;40.27;20.03;;;;;;;3.72;93.23;94648.75;5035355;28;20305;-76
2022/12/08 03:38:07;;;;;;;42.47;19.60;;;;;;;3.71;93.14;94649.75;5025379;28;20313;-76
2022/12/08 03:40:32;;;;;;;35.27;19.10;;;;;;;3.73;93.18;94643.38;5033389;28;20229;-76
2022/12/08 03:42:58;;;;;;;38.30;19.00;;;;;;;3.74;93.42;94636.38;5041518;28;20184;-76
2022/12/08 03:45:23;;;;;;;41.43;21.73;;;;;;;3.66;93.82;94639.84;5032418;28;20674;-76
2022/12/08 03:47:50;;;;;;;37.33;20.80;;;;;;;3.49;94.19;94603.72;5038134;28;20214;-75
2022/12/08 03:50:15;;;;;;;59.90;28.70;;;;;;;3.64;94.04;94625.38;5052178;28;20261;-76
2022/12/08 03:52:41;;;;;;;66.97;34.88;;;;;;;3.78;94.50;94646.28;5051747;28;21016;-76
2022/12/08 03:55:06;;;;;;;71.50;36.63;;;;;;;3.74;94.79;94631.97;5052278;28;20666;-76
2022/12/08 03:57:32;;;;;;;60.83;32.57;;;;;;;3.84;94.69;94652.56;5051989;28;20183;-76
2022/12/08 03:59:57;;;;;;;61.27;30.33;;;;;;;3.67;94.67;94625.88;5043921;28;20187;-76
2022/12/08 04:02:22;;;;;;;70.77;34.63;;;;;;;3.84;94.43;94660.38;5031938;28;20172;-76
2022/12/08 04:04:48;;;;;;;60.60;32.47;;;;;;;3.89;94.66;94652.88;5032021;28;20184;-76
2022/12/08 04:07:13;;;;;;;68.07;31.77;;;;;;;3.94;94.35;94665.34;5046819;28;20186;-76
2022/12/08 04:09:40;;;;;;;59.27;32.23;;;;;;;3.88;94.40;94648.66;5039852;28;20190;-76
2022/12/08 04:12:06;;;;;;;61.40;30.33;;;;;;;3.84;93.99;94642.16;5051861;28;20179;-76
2022/12/08 04:14:31;;;;;;;79.47;31.57;;;;;;;3.88;93.29;94653.88;5051943;28;20175;-76
2022/12/08 04:16:57;;;;;;;76.23;33.10;;;;;;;4.03;93.03;94656.50;5034114;28;20178;-76
2022/12/08 04:19:22;;;;;;;63.77;30.60;;;;;;;3.96;93.51;94655.59;5031578;28;20199;-76
2022/12/08 04:21:48;;;;;;;57.20;31.73;;;;;;;3.99;94.04;94650.00;5028093;28;20187;-76
2022/12/08 04:24:13;;;;;;;60.73;30.53;;;;;;;3.99;94.26;94653.41;5028509;28;20187;-75
2022/12/08 04:26:38;;;;;;;62.23;31.43;;;;;;;3.84;95.02;94656.97;5030134;28;20544;-75
2022/12/08 04:29:04;;;;;;;46.40;24.40;;;;;;;3.88;95.16;94658.25;5030962;28;20229;-75
2022/12/08 04:31:29;;;;;;;41.77;24.30;;;;;;;3.88;95.13;94650.44;5030922;28;20331;-76
2022/12/08 04:33:54;;;;;;;47.13;23.87;;;;;;;3.83;95.29;94643.13;5023630;28;20187;-76
2022/12/08 04:36:20;;;;;;;56.87;28.47;;;;;;;3.92;94.70;94643.88;5020357;28;20242;-76
2022/12/08 04:38:45;;;;;;;51.97;27.50;;;;;;;4.08;94.75;94665.38;5014398;28;20271;-76
2022/12/08 04:41:11;;;;;;;52.03;25.93;;;;;;;4.04;94.26;94650.31;5020072;28;20204;-76
2022/12/08 04:43:36;;;;;;;50.13;25.97;;;;;;;4.12;94.50;94660.66;5019336;28;20190;-76
2022/12/08 04:46:05;;;;;;;50.60;25.43;;;;;;;4.15;94.57;94655.09;5044043;28;20235;-76
2022/12/08 04:48:30;;;;;;;53.80;25.87;;;;;;;4.06;94.47;94632.72;5028738;28;20218;-76
2022/12/08 04:50:56;;;;;;;45.90;25.67;;;;;;;4.28;94.29;94662.31;5031336;28;20211;-76
2022/12/08 04:53:21;;;;;;;52.17;24.73;;;;;;;4.30;93.89;94670.75;5035549;28;20905;-76
2022/12/08 04:55:48;;;;;;;49.43;24.27;;;;;;;4.34;94.27;94669.41;5050873;28;20175;-76
2022/12/08 04:58:15;;;;;;;50.47;24.63;;;;;;;4.39;94.53;94673.13;5050826;28;20189;-76
2022/12/08 05:00:42;;;;;;;62.30;27.53;;;;;;;4.35;94.84;94674.44;5050823;28;20230;-76
2022/12/08 05:03:08;;;;;;;64.20;29.27;;;;;;;4.38;95.03;94666.28;5043385;28;20186;-76
2022/12/08 05:05:33;;;;;;;64.07;32.67;;;;;;;4.41;95.28;94660.69;5035398;28;20210;-76
2022/12/08 05:07:59;;;;;;;56.93;25.43;;;;;;;4.33;95.31;94659.97;5028792;28;20183;-76
2022/12/08 05:10:24;;;;;;;79.50;38.70;;;;;;;4.56;95.40;94689.41;5030849;28;20203;-76
2022/12/08 05:12:49;;;;;;;92.00;42.83;;;;;;;4.59;95.24;94694.22;5033056;28;20183;-76
2022/12/08 05:15:15;;;;;;;79.20;41.37;;;;;;;4.54;94.81;94660.09;5030685;28;20171;-76
2022/12/08 05:17:40;;;;;;;81.97;38.90;;;;;;;4.64;94.84;94676.28;5028350;28;20211;-76
2022/12/08 05:20:06;;;;;;;71.90;34.60;;;;;;;4.51;94.59;94660.44;5030824;28;20206;-76
2022/12/08 05:22:32;;;;;;;93.90;39.80;;;;;;;4.64;94.76;94689.31;5045790;28;20182;-76
2022/12/08 05:24:57;;;;;;;57.13;29.40;;;;;;;4.64;95.10;94683.28;5028496;28;20722;-76
2022/12/08 05:27:23;;;;;;;48.90;26.03;;;;;;;4.71;95.06;94686.78;5030286;28;20309;-75
2022/12/08 05:29:49;;;;;;;51.47;27.40;;;;;;;4.66;95.18;94695.16;5029335;28;20425;-76
2022/12/08 05:32:15;;;;;;;66.55;33.10;;;;;;;4.58;95.40;94678.81;5029360;28;20413;-76
2022/12/08 05:34:40;;;;;;;59.67;28.70;;;;;;;4.54;95.56;94696.56;5031140;28;20191;-77
2022/12/08 05:37:06;;;;;;;58.00;27.27;;;;;;;4.46;95.34;94687.03;5032248;28;20183;-76
2022/12/08 05:39:31;;;;;;;57.83;28.97;;;;;;;4.41;95.18;94676.31;5030628;28;20258;-76
2022/12/08 05:41:58;;;;;;;53.23;27.77;;;;;;;4.41;94.87;94672.94;5030907;28;20254;-76
2022/12/08 05:44:23;;;;;;;60.57;28.87;;;;;;;4.56;93.87;94707.66;5039660;28;20183;-76
2022/12/08 05:46:49;;;;;;;46.67;24.57;;;;;;;4.53;94.13;94700.16;5030657;28;20200;-77
2022/12/08 05:49:14;;;;;;;46.60;23.43;;;;;;;4.46;94.42;94694.88;5030582;28;20183;-76
2022/12/08 05:51:39;;;;;;;50.40;25.97;;;;;;;4.40;94.10;94677.34;5044823;28;20175;-76
2022/12/08 05:54:05;;;;;;;66.83;26.70;;;;;;;4.47;94.19;94706.91;5048947;28;20615;-75
2022/12/08 05:56:30;;;;;;;56.57;30.27;;;;;;;4.47;93.85;94706.09;5040443;28;20226;-76
2022/12/08 05:58:56;;;;;;;67.37;33.87;;;;;;;4.37;93.91;94692.50;5036244;28;20623;-76
2022/12/08 06:01:30;;;;;;;65.83;33.40;;;;;;;4.41;93.30;94706.81;5045114;28;20226;-76
2022/12/08 06:04:01;;;;;;;74.63;36.92;;;;;;;4.28;93.21;94732.63;5041533;28;20887;-76
2022/12/08 06:06:27;;;;;;;72.00;33.50;;;;;;;4.15;93.76;94723.59;5050581;28;20619;-76
2022/12/08 06:08:53;;;;;;;66.67;32.43;;;;;;;4.17;94.13;94718.22;5042192;28;20180;-76
2022/12/08 06:11:28;;;;;;;58.90;31.77;;;;;;;4.13;94.34;94717.78;5038108;28;20185;-76
2022/12/08 06:13:55;;;;;;;66.47;31.17;;;;;;;4.28;94.21;94727.44;5032160;28;20187;-76
2022/12/08 06:16:21;;;;;;;64.90;31.27;;;;;;;4.31;94.14;94732.28;5028565;28;20190;-76
2022/12/08 06:18:46;;;;;;;61.33;31.20;;;;;;;4.33;94.44;94725.09;5029131;28;20179;-76
2022/12/08 06:21:13;;;;;;;64.97;31.60;;;;;;;4.35;94.39;94720.53;5029034;28;20184;-76
2022/12/08 06:23:39;;;;;;;71.17;35.37;;;;;;;4.33;95.01;94702.47;5033149;28;20191;-76
2022/12/08 06:26:11;;;;;;;74.57;37.20;;;;;;;4.58;94.00;94734.34;5044594;28;20278;-76
2022/12/08 06:28:37;;;;;;;88.83;42.73;;;;;;;4.56;93.74;94731.09;5047542;28;20659;-77
2022/12/08 06:31:29;;;;;;;96.87;47.73;;;;;;;4.78;94.21;94734.63;5043862;28;20558;-76
2022/12/08 06:33:54;;;;;;;80.67;41.73;;;;;;;4.87;94.05;94713.50;5052384;28;20197;-76
2022/12/08 06:36:22;;;;;;;82.77;38.67;;;;;;;4.96;93.27;94710.81;5053619;28;20175;-75
2022/12/08 06:38:48;;;;;;;89.63;39.80;;;;;;;5.02;92.84;94717.91;5038873;28;20175;-76
2022/12/08 06:41:14;;;;;;;90.10;43.27;;;;;;;4.99;92.61;94710.47;5048148;28;20669;-76
2022/12/08 06:43:40;;;;;;;89.50;45.10;;;;;;;5.07;92.81;94724.22;5047636;28;20187;-77
2022/12/08 06:46:08;;;;;;;90.67;44.30;;;;;;;5.07;93.28;94721.63;5033653;28;20206;-76
2022/12/08 06:48:34;;;;;;;92.60;45.47;;;;;;;5.18;93.46;94721.16;5033497;28;20219;-76
2022/12/08 06:51:14;;;;;;;91.90;43.57;;;;;;;5.52;93.65;94720.59;5039447;28;20214;-76
2022/12/08 06:53:39;;;;;;;97.13;44.63;;;;;;;6.00;92.26;94695.59;5034222;28;20241;-75
2022/12/08 06:56:06;;;;;;;88.00;47.40;;;;;;;6.44;89.27;94720.72;5037203;28;20171;-74
2022/12/08 06:58:32;;;;;;;100.50;50.03;;;;;;;6.30;87.94;94725.03;5053332;28;20244;-75
2022/12/08 07:01:07;;;;;;;97.67;49.80;;;;;;;6.16;88.36;94712.81;5053249;28;20179;-75
2022/12/08 07:03:33;;;;;;;95.07;49.10;;;;;;;6.31;89.00;94716.19;5047411;28;20614;-75
2022/12/08 07:05:58;;;;;;;110.13;52.33;;;;;;;6.97;88.54;94740.25;5032616;28;20210;-75
2022/12/08 07:08:24;;;;;;;105.93;53.77;;;;;;;7.55;86.46;94748.59;5049719;28;20248;-75
2022/12/08 07:10:50;;;;;;;101.97;53.53;;;;;;;8.43;83.82;94752.94;5031749;28;20191;-75
2022/12/08 07:13:15;;;;;;;108.67;54.97;;;;;;;9.38;81.16;94752.50;5044147;28;20179;-75
2022/12/08 07:15:40;;;;;;;122.17;63.43;;;;;;;10.37;77.28;94764.47;5041241;28;20642;-76
2022/12/08 07:18:06;;;;;;;120.67;64.03;;;;;;;11.26;73.62;94766.81;5042858;28;20187;-76
2022/12/08 07:20:31;;;;;;;97.60;47.90;;;;;;;12.08;70.10;94776.91;5048654;28;20214;-76
2022/12/08 07:22:57;;;;;;;67.13;35.77;;;;;;;12.87;67.22;94756.53;5051773;28;20224;-75
2022/12/08 07:25:22;;;;;;;54.83;28.67;;;;;;;13.97;63.98;94756.66;5050905;28;20715;-76
2022/12/08 07:27:50;;;;;;;39.93;21.30;;;;;;;15.18;60.71;94781.94;5042408;28;20184;-76
2022/12/08 07:30:16;;;;;;;42.13;19.63;;;;;;;15.92;57.24;94789.66;5048943;28;20175;-75
2022/12/08 07:32:41;;;;;;;41.87;19.40;;;;;;;16.64;55.56;94789.50;5028463;28;20198;-76
2022/12/08 07:35:08;;;;;;;27.23;15.40;;;;;;;17.64;52.90;94763.00;5029490;28;20179;-76
2022/12/08 07:37:34;;;;;;;26.70;15.20;;;;;;;19.06;49.65;94768.88;5029853;28;20281;-76
2022/12/08 07:40:00;;;;;;;20.98;12.38;;;;;;;20.23;45.10;94771.47;5030886;28;20198;-76
2022/12/08 07:42:26;;;;;;;21.45;11.88;;;;;;;20.34;43.92;94770.34;5038878;28;20705;-75
2022/12/08 07:44:51;;;;;;;21.02;12.20;;;;;;;20.11;44.39;94776.28;5048235;28;20943;-75
2022/12/08 07:47:17;;;;;;;36.13;13.43;;;;;;;21.03;43.46;94769.44;5041336;28;20202;-75
2022/12/08 07:49:42;;;;;;;23.75;12.13;;;;;;;21.14;42.10;94775.53;5040531;28;20179;-75
2022/12/08 07:52:07;;;;;;;22.15;13.02;;;;;;;20.20;43.01;94772.78;5035601;28;20250;-76
2022/12/08 07:54:33;;;;;;;23.52;12.20;;;;;;;19.80;43.83;94771.03;5051652;28;20179;-75
2022/12/08 07:56:58;;;;;;;24.75;14.48;;;;;;;18.56;45.40;94771.44;5050865;28;20178;-76
2022/12/08 07:59:24;;;;;;;26.95;15.10;;;;;;;16.94;49.24;94745.44;5039410;28;20599;-76
2022/12/08 08:01:50;;;;;;;26.00;14.63;;;;;;;16.35;51.52;94759.66;5043657;28;20277;-77
2022/12/08 08:04:16;;;;;;;26.40;15.47;;;;;;;15.44;53.42;94751.28;5048759;28;20679;-76
2022/12/08 08:06:42;;;;;;;27.50;15.07;;;;;;;14.41;56.50;94751.69;5050072;28;20199;-77
2022/12/08 08:09:09;;;;;;;36.43;16.63;;;;;;;13.87;59.10;94759.88;5051088;28;20229;-76
2022/12/08 08:11:35;;;;;;;29.93;14.93;;;;;;;13.56;60.00;94753.16;5041679;28;20163;-76
2022/12/08 08:14:00;;;;;;;38.53;21.13;;;;;;;12.14;64.03;94733.00;5048226;28;20191;-76
2022/12/08 08:16:26;;;;;;;37.60;20.63;;;;;;;10.89;68.03;94713.25;5033423;28;20210;-76
2022/12/08 08:18:51;;;;;;;35.23;20.20;;;;;;;10.51;70.74;94750.19;5047421;28;20702;-76
2022/12/08 08:21:19;;;;;;;39.00;21.03;;;;;;;9.99;72.60;94744.19;5040009;28;20202;-76
2022/12/08 08:23:44;;;;;;;44.03;22.60;;;;;;;9.69;73.26;94724.69;5045299;28;20175;-75
2022/12/08 08:26:09;;;;;;;34.17;20.00;;;;;;;9.55;74.75;94765.97;5034161;28;20238;-75
2022/12/08 08:28:35;;;;;;;41.87;19.17;;;;;;;9.42;75.42;94761.59;5045249;28;20615;-76
2022/12/08 08:31:01;;;;;;;36.00;20.27;;;;;;;9.22;76.92;94762.63;5035785;28;20710;-76
2022/12/08 08:33:27;;;;;;;37.47;20.50;;;;;;;9.04;77.18;94758.00;5041969;28;20533;-76
2022/12/08 08:35:53;;;;;;;37.03;19.47;;;;;;;8.77;78.12;94736.19;5049594;28;20190;-76
2022/12/08 08:38:19;;;;;;;34.00;18.57;;;;;;;8.63;79.51;94756.41;5041450;28;20269;-76
2022/12/08 08:40:44;;;;;;;40.57;20.40;;;;;;;8.32;80.69;94756.94;5037816;28;20665;-76
2022/12/08 08:43:27;;;;;;;41.80;22.30;;;;;;;8.19;81.63;94749.03;5045565;28;20628;-76
2022/12/08 08:45:58;;;;;;;42.50;21.47;;;;;;;8.06;82.57;94748.19;5046912;28;20191;-76
2022/12/08 08:48:25;;;;;;;48.20;23.17;;;;;;;8.06;81.97;94745.56;5031931;28;20258;-75
2022/12/08 08:50:51;;;;;;;44.47;23.07;;;;;;;8.01;82.38;94747.97;5047729;28;20574;-76
2022/12/08 08:53:16;;;;;;;43.93;21.13;;;;;;;8.10;82.09;94746.78;5042995;28;20179;-75
2022/12/08 08:55:42;;;;;;;45.30;19.57;;;;;;;8.12;82.00;94735.13;5035269;28;20542;-75
2022/12/08 08:58:07;;;;;;;39.07;19.80;;;;;;;8.22;81.86;94745.19;5040996;28;20255;-76
2022/12/08 09:00:33;;;;;;;39.60;19.37;;;;;;;8.17;82.03;94724.03;5042126;28;20229;-76
2022/12/08 09:02:58;;;;;;;43.30;19.73;;;;;;;8.43;81.22;94731.16;5043427;28;20208;-76
2022/12/08 09:05:23;;;;;;;36.00;20.13;;;;;;;8.41;81.45;94741.03;5044600;28;20246;-76
2022/12/08 09:07:49;;;;;;;38.70;19.47;;;;;;;8.48;82.25;94742.66;5036665;28;20222;-76
2022/12/08 09:10:14;;;;;;;38.57;19.13;;;;;;;8.59;82.09;94736.81;5045312;28;20254;-77
2022/12/08 09:12:39;;;;;;;34.27;18.17;;;;;;;8.63;80.64;94727.53;5041826;28;20190;-76
2022/12/08 09:15:06;;;;;;;29.23;15.13;;;;;;;8.69;80.97;94728.53;5044544;28;20262;-76
2022/12/08 09:17:31;;;;;;;30.77;15.23;;;;;;;8.50;79.93;94693.41;5048143;28;20297;-76
2022/12/08 09:19:56;;;;;;;36.30;15.93;;;;;;;8.61;80.14;94720.88;5035500;28;20179;-76
2022/12/08 09:22:22;;;;;;;70.13;34.13;;;;;;;8.73;81.14;94729.75;5048396;28;20187;-76
2022/12/08 09:24:48;;;;;;;39.63;18.47;;;;;;;8.91;81.47;94726.50;5044627;28;20266;-77
2022/12/08 09:27:13;;;;;;;26.00;15.17;;;;;;;9.17;80.65;94726.47;5030531;28;20290;-77
2022/12/08 09:29:39;;;;;;;24.63;12.20;;;;;;;9.31;79.58;94712.31;5050051;28;20604;-76
2022/12/08 09:32:04;;;;;;;25.67;10.93;;;;;;;9.51;77.67;94728.00;5037717;28;20182;-76
2022/12/08 09:34:30;;;;;;;18.47;11.07;;;;;;;9.73;77.98;94718.81;5045362;28;20182;-76
2022/12/08 09:36:56;;;;;;;31.97;11.53;;;;;;;9.79;75.97;94720.59;5041997;28;20557;-76
2022/12/08 09:39:21;;;;;;;51.17;18.40;;;;;;;9.86;77.86;94722.41;5047796;28;20171;-76
2022/12/08 09:41:58;;;;;;;37.00;17.40;;;;;;;9.90;77.85;94710.44;5041984;28;20183;-77
2022/12/08 09:44:41;;;;;;;40.43;19.73;;;;;;;9.95;76.89;94716.69;5042765;28;20171;-76
2022/12/08 09:47:18;;;;;;;33.90;17.57;;;;;;;9.64;76.96;94706.13;5030145;28;20203;-76
2022/12/08 09:49:58;;;;;;;33.77;16.90;;;;;;;9.57;78.73;94695.66;5029338;28;20188;-76
2022/12/08 09:52:51;;;;;;;32.73;16.10;;;;;;;9.77;78.22;94708.72;5029293;28;20180;-76
2022/12/08 09:55:23;;;;;;;31.83;16.23;;;;;;;9.78;78.56;94697.16;5039180;28;20189;-76
2022/12/08 09:57:59;;;;;;;31.20;13.83;;;;;;;9.84;77.55;94689.25;5027564;28;20194;-76
2022/12/08 10:00:24;;;;;;;24.13;13.10;;;;;;;9.79;76.53;94686.44;5045953;28;20174;-76
2022/12/08 10:02:50;;;;;;;31.20;13.80;;;;;;;9.64;77.13;94654.38;5049899;28;20191;-76
2022/12/08 10:05:16;;;;;;;30.00;14.60;;;;;;;9.88;77.00;94681.75;5049233;28;20549;-76
2022/12/08 10:08:06;;;;;;;31.23;13.30;;;;;;;10.01;76.85;94678.25;5039987;28;20179;-74
2022/12/08 10:10:59;;;;;;;24.93;13.67;;;;;;;10.19;76.25;94678.38;5041092;28;20172;-76
2022/12/08 10:13:43;;;;;;;21.13;11.97;;;;;;;10.38;76.42;94656.34;5053082;28;20667;-75
2022/12/08 10:16:21;;;;;;;15.97;9.40;;;;;;;10.39;74.29;94667.69;5053751;28;20641;-75
2022/12/08 10:18:54;;;;;;;16.90;8.17;;;;;;;10.25;74.36;94669.63;5048917;28;20262;-75
2022/12/08 10:21:24;;;;;;;14.57;7.80;;;;;;;10.13;74.69;94653.66;5033760;28;20238;-75
2022/12/08 10:23:57;;;;;;;16.30;7.07;;;;;;;10.29;74.36;94662.91;5037501;28;20669;-75
2022/12/08 10:26:23;;;;;;;21.07;8.90;;;;;;;10.34;74.04;94662.28;5052924;28;20219;-75
2022/12/08 10:28:50;;;;;;;19.07;8.27;;;;;;;10.55;73.77;94659.28;5053062;28;20167;-75
2022/12/08 10:31:18;;;;;;;21.57;8.30;;;;;;;10.48;73.47;94653.25;5053243;28;20333;-75
2022/12/08 10:33:45;;;;;;;15.77;8.10;;;;;;;10.53;73.54;94656.84;5053431;28;20254;-75
2022/12/08 10:36:11;;;;;;;14.67;7.83;;;;;;;10.40;73.38;94638.53;5052842;28;20692;-75
2022/12/08 10:38:38;;;;;;;12.23;7.40;;;;;;;10.62;73.87;94649.50;5052846;28;20171;-75
2022/12/08 10:41:13;;;;;;;16.60;8.60;;;;;;;10.70;73.04;94648.41;5048916;28;20259;-75
2022/12/08 10:43:46;;;;;;;18.57;8.60;;;;;;;10.80;73.20;94648.72;5049350;28;20178;-75
2022/12/08 10:46:13;;;;;;;15.67;8.93;;;;;;;10.80;74.33;94648.72;5053064;28;20615;-75
2022/12/08 10:48:52;;;;;;;15.23;8.83;;;;;;;10.94;73.36;94637.84;5051822;28;20592;-75
2022/12/08 10:51:42;;;;;;;25.37;9.77;;;;;;;11.01;72.05;94636.97;5051484;28;20233;-76
2022/12/08 10:54:31;;;;;;;24.30;11.60;;;;;;;10.84;72.47;94634.91;5035902;28;20571;-76
2022/12/08 10:56:56;;;;;;;21.77;10.17;;;;;;;10.87;72.54;94631.84;5032346;28;20182;-75
2022/12/08 10:59:24;;;;;;;17.90;9.20;;;;;;;10.97;72.61;94626.06;5032165;28;20255;-75
2022/12/08 11:01:51;;;;;;;19.77;9.60;;;;;;;11.10;72.71;94623.28;5032192;28;20172;-76
2022/12/08 11:04:18;;;;;;;17.90;10.13;;;;;;;11.11;72.74;94605.66;5031962;28;20178;-76
2022/12/08 11:06:45;;;;;;;22.10;9.73;;;;;;;11.26;71.84;94619.25;5031963;28;20206;-75
2022/12/08 11:09:16;;;;;;;15.80;9.10;;;;;;;11.09;71.76;94613.78;5031890;28;20203;-75
2022/12/08 11:11:45;;;;;;;17.20;8.90;;;;;;;11.16;72.84;94614.50;5032272;28;20178;-75
2022/12/08 11:14:16;;;;;;;16.00;9.27;;;;;;;11.20;71.54;94617.50;5032051;28;20179;-75
2022/12/08 11:16:42;;;;;;;16.73;8.70;;;;;;;11.20;71.89;94610.41;5031728;28;20178;-75
2022/12/08 11:19:16;;;;;;;17.63;9.90;;;;;;;11.26;71.87;94598.16;5031728;28;20179;-75
2022/12/08 11:21:41;;;;;;;17.77;8.07;;;;;;;11.36;71.20;94595.81;5031745;28;20649;-75
2022/12/08 11:24:28;;;;;;;16.30;8.80;;;;;;;11.34;71.13;94592.59;5031627;28;20175;-75
2022/12/08 11:27:03;;;;;;;17.43;9.70;;;;;;;11.21;72.38;94584.88;5031530;28;20231;-75
2022/12/08 11:29:31;;;;;;;19.80;9.50;;;;;;;11.28;72.90;94586.41;5031755;28;20241;-75
2022/12/08 11:32:13;;;;;;;17.53;10.17;;;;;;;11.39;71.30;94582.22;5031583;28;20277;-75
2022/12/08 11:34:46;;;;;;;18.47;9.90;;;;;;;11.43;70.81;94588.63;5031653;28;20770;-75
2022/12/08 11:37:24;;;;;;;16.53;7.53;;;;;;;11.25;71.50;94583.38;5031673;28;20222;-75
2022/12/08 11:39:55;;;;;;;11.50;6.33;;;;;;;11.26;71.68;94583.16;5031641;28;20194;-75